sensor_id;sensor_type;location;lat;lon;timestamp;P1;durP1;ratioP1;P2;durP2;ratioP2
44832;SDS011;30569;51.252;9.830;2024-03-23T00:55:51;7.38;;;3.20;;
44832;SDS011;30569;51.252;9.830;2024-03-23T00:58:17;5.90;;;2.95;;
44832;SDS011;30569;51.252;9.830;2024-03-23T01:00:43;5.35;;;2.80;;
44832;SDS011;30569;51.252;9.830;2024-03-23T01:03:08;5.75;;;2.88;;
44832;SDS011;30569;51.252;9.830;2024-03-23T01:05:34;6.47;;;2.97;;
44832;SDS011;30569;51.252;9.830;2024-03-23T01:07:59;5.22;;;2.78;;
44832;SDS011;30569;51.252;9.830;2024-03-23T01:10:25;7.40;;;2.63;;
44832;SDS011;30569;51.252;9.830;2024-03-23T01:12:51;5.32;;;2.70;;
44832;SDS011;30569;51.252;9.830;2024-03-23T01:15:16;4.72;;;2.53;;
44832;SDS011;30569;51.252;9.830;2024-03-23T01:17:42;6.18;;;3.13;;
44832;SDS011;30569;51.252;9.830;2024-03-23T01:20:07;4.68;;;2.60;;
44832;SDS011;30569;51.252;9.830;2024-03-23T01:22:33;5.70;;;2.70;;
44832;SDS011;30569;51.252;9.830;2024-03-23T01:24:58;6.32;;;2.40;;
44832;SDS011;30569;51.252;9.830;2024-03-23T01:27:24;4.63;;;2.33;;
44832;SDS011;30569;51.252;9.830;2024-03-23T01:29:50;7.60;;;2.67;;
44832;SDS011;30569;51.252;9.830;2024-03-23T01:32:17;5.18;;;2.30;;
44832;SDS011;30569;51.252;9.830;2024-03-23T01:34:43;5.60;;;2.60;;
44832;SDS011;30569;51.252;9.830;2024-03-23T01:37:09;5.50;;;2.70;;
44832;SDS011;30569;51.252;9.830;2024-03-23T01:39:34;5.85;;;2.80;;
44832;SDS011;30569;51.252;9.830;2024-03-23T01:42:00;5.78;;;2.90;;
44832;SDS011;30569;51.252;9.830;2024-03-23T01:44:25;7.25;;;2.88;;
44832;SDS011;30569;51.252;9.830;2024-03-23T01:46:51;5.22;;;2.90;;
44832;SDS011;30569;51.252;9.830;2024-03-23T01:49:17;8.20;;;3.50;;
44832;SDS011;30569;51.252;9.830;2024-03-23T01:51:42;6.47;;;3.40;;
44832;SDS011;30569;51.252;9.830;2024-03-23T01:54:09;5.65;;;3.13;;
44832;SDS011;30569;51.252;9.830;2024-03-23T01:56:35;7.95;;;3.30;;
44832;SDS011;30569;51.252;9.830;2024-03-23T01:59:01;6.38;;;3.30;;
44832;SDS011;30569;51.252;9.830;2024-03-23T02:01:28;9.13;;;3.38;;
44832;SDS011;30569;51.252;9.830;2024-03-23T02:03:54;8.38;;;3.47;;
44832;SDS011;30569;51.252;9.830;2024-03-23T02:06:19;8.70;;;3.22;;
44832;SDS011;30569;51.252;9.830;2024-03-23T02:08:45;10.02;;;3.30;;
44832;SDS011;30569;51.252;9.830;2024-03-23T02:11:10;7.72;;;3.00;;
44832;SDS011;30569;51.252;9.830;2024-03-23T02:13:36;7.60;;;3.22;;
44832;SDS011;30569;51.252;9.830;2024-03-23T02:16:02;6.75;;;3.20;;
44832;SDS011;30569;51.252;9.830;2024-03-23T02:18:27;7.90;;;2.83;;
44832;SDS011;30569;51.252;9.830;2024-03-23T02:20:53;6.60;;;2.80;;
44832;SDS011;30569;51.252;9.830;2024-03-23T02:23:18;8.73;;;3.00;;
44832;SDS011;30569;51.252;9.830;2024-03-23T02:25:45;8.55;;;2.50;;
44832;SDS011;30569;51.252;9.830;2024-03-23T02:28:10;6.82;;;2.78;;
44832;SDS011;30569;51.252;9.830;2024-03-23T02:30:36;10.35;;;2.90;;
44832;SDS011;30569;51.252;9.830;2024-03-23T02:33:02;10.40;;;3.63;;
44832;SDS011;30569;51.252;9.830;2024-03-23T02:35:28;9.75;;;2.50;;
44832;SDS011;30569;51.252;9.830;2024-03-23T02:37:54;7.72;;;2.42;;
44832;SDS011;30569;51.252;9.830;2024-03-23T02:40:21;7.90;;;3.05;;
44832;SDS011;30569;51.252;9.830;2024-03-23T02:42:48;9.05;;;3.50;;
44832;SDS011;30569;51.252;9.830;2024-03-23T02:45:14;11.18;;;3.40;;
44832;SDS011;30569;51.252;9.830;2024-03-23T02:47:40;9.95;;;3.70;;
44832;SDS011;30569;51.252;9.830;2024-03-23T02:50:05;10.38;;;3.33;;
44832;SDS011;30569;51.252;9.830;2024-03-23T02:52:31;10.85;;;3.55;;
44832;SDS011;30569;51.252;9.830;2024-03-23T02:54:57;12.15;;;3.05;;
44832;SDS011;30569;51.252;9.830;2024-03-23T02:57:23;8.65;;;2.65;;
44832;SDS011;30569;51.252;9.830;2024-03-23T02:59:48;9.57;;;3.95;;
44832;SDS011;30569;51.252;9.830;2024-03-23T03:02:15;8.93;;;2.83;;
44832;SDS011;30569;51.252;9.830;2024-03-23T03:04:41;9.35;;;3.00;;
44832;SDS011;30569;51.252;9.830;2024-03-23T03:07:07;11.63;;;3.92;;
44832;SDS011;30569;51.252;9.830;2024-03-23T03:09:33;8.32;;;3.28;;
44832;SDS011;30569;51.252;9.830;2024-03-23T03:12:00;8.90;;;3.17;;
44832;SDS011;30569;51.252;9.830;2024-03-23T03:14:28;9.07;;;3.10;;
44832;SDS011;30569;51.252;9.830;2024-03-23T03:16:54;10.05;;;2.75;;
44832;SDS011;30569;51.252;9.830;2024-03-23T03:19:20;8.18;;;2.97;;
44832;SDS011;30569;51.252;9.830;2024-03-23T03:21:45;8.43;;;3.00;;
44832;SDS011;30569;51.252;9.830;2024-03-23T03:24:12;7.30;;;3.25;;
44832;SDS011;30569;51.252;9.830;2024-03-23T03:26:38;10.68;;;3.33;;
44832;SDS011;30569;51.252;9.830;2024-03-23T03:29:03;7.90;;;3.60;;
44832;SDS011;30569;51.252;9.830;2024-03-23T03:31:29;9.05;;;3.58;;
44832;SDS011;30569;51.252;9.830;2024-03-23T03:33:55;5.80;;;3.28;;
44832;SDS011;30569;51.252;9.830;2024-03-23T03:36:20;9.60;;;3.80;;
44832;SDS011;30569;51.252;9.830;2024-03-23T03:38:46;11.55;;;3.80;;
44832;SDS011;30569;51.252;9.830;2024-03-23T03:41:11;11.63;;;3.67;;
44832;SDS011;30569;51.252;9.830;2024-03-23T03:43:37;13.88;;;4.25;;
44832;SDS011;30569;51.252;9.830;2024-03-23T03:46:03;8.95;;;4.00;;
44832;SDS011;30569;51.252;9.830;2024-03-23T03:48:29;9.85;;;3.88;;
44832;SDS011;30569;51.252;9.830;2024-03-23T03:50:54;15.23;;;4.57;;
44832;SDS011;30569;51.252;9.830;2024-03-23T03:53:20;9.93;;;4.18;;
44832;SDS011;30569;51.252;9.830;2024-03-23T03:55:46;9.10;;;4.13;;
44832;SDS011;30569;51.252;9.830;2024-03-23T03:58:11;8.88;;;4.10;;
44832;SDS011;30569;51.252;9.830;2024-03-23T04:00:37;14.85;;;4.85;;
44832;SDS011;30569;51.252;9.830;2024-03-23T04:03:03;10.45;;;5.20;;
44832;SDS011;30569;51.252;9.830;2024-03-23T04:05:28;12.80;;;3.90;;
44832;SDS011;30569;51.252;9.830;2024-03-23T04:07:54;11.38;;;5.07;;
44832;SDS011;30569;51.252;9.830;2024-03-23T04:10:20;11.65;;;4.38;;
44832;SDS011;30569;51.252;9.830;2024-03-23T04:12:46;10.45;;;4.07;;
44832;SDS011;30569;51.252;9.830;2024-03-23T04:15:12;14.07;;;4.22;;
44832;SDS011;30569;51.252;9.830;2024-03-23T04:17:38;10.95;;;4.63;;
44832;SDS011;30569;51.252;9.830;2024-03-23T04:20:04;10.07;;;4.13;;
44832;SDS011;30569;51.252;9.830;2024-03-23T04:22:34;11.65;;;4.38;;
44832;SDS011;30569;51.252;9.830;2024-03-23T04:24:59;11.73;;;4.70;;
44832;SDS011;30569;51.252;9.830;2024-03-23T04:27:31;9.40;;;3.80;;
44832;SDS011;30569;51.252;9.830;2024-03-23T04:30:00;7.95;;;3.25;;
44832;SDS011;30569;51.252;9.830;2024-03-23T04:32:26;10.20;;;3.10;;
44832;SDS011;30569;51.252;9.830;2024-03-23T04:34:53;4.65;;;2.40;;
44832;SDS011;30569;51.252;9.830;2024-03-23T04:37:19;8.20;;;2.20;;
44832;SDS011;30569;51.252;9.830;2024-03-23T04:39:45;4.78;;;2.05;;
44832;SDS011;30569;51.252;9.830;2024-03-23T04:42:11;4.72;;;1.95;;
44832;SDS011;30569;51.252;9.830;2024-03-23T04:44:37;5.35;;;1.67;;
44832;SDS011;30569;51.252;9.830;2024-03-23T04:47:02;4.63;;;2.08;;
44832;SDS011;30569;51.252;9.830;2024-03-23T04:49:28;4.15;;;1.77;;
44832;SDS011;30569;51.252;9.830;2024-03-23T04:51:54;6.78;;;2.28;;
44832;SDS011;30569;51.252;9.830;2024-03-23T04:54:19;4.18;;;1.50;;
44832;SDS011;30569;51.252;9.830;2024-03-23T04:56:45;3.55;;;1.60;;
44832;SDS011;30569;51.252;9.830;2024-03-23T04:59:10;4.22;;;1.65;;
44832;SDS011;30569;51.252;9.830;2024-03-23T05:01:36;3.10;;;1.35;;
44832;SDS011;30569;51.252;9.830;2024-03-23T05:04:03;3.70;;;1.40;;
44832;SDS011;30569;51.252;9.830;2024-03-23T05:06:30;3.20;;;1.30;;
44832;SDS011;30569;51.252;9.830;2024-03-23T05:08:56;3.08;;;1.25;;
44832;SDS011;30569;51.252;9.830;2024-03-23T05:11:21;4.55;;;1.40;;
44832;SDS011;30569;51.252;9.830;2024-03-23T05:13:47;2.43;;;1.23;;
44832;SDS011;30569;51.252;9.830;2024-03-23T05:16:12;3.33;;;1.40;;
44832;SDS011;30569;51.252;9.830;2024-03-23T05:18:38;3.07;;;1.40;;
44832;SDS011;30569;51.252;9.830;2024-03-23T05:21:03;2.50;;;1.30;;
44832;SDS011;30569;51.252;9.830;2024-03-23T05:23:29;2.42;;;1.20;;
44832;SDS011;30569;51.252;9.830;2024-03-23T05:25:55;2.40;;;1.10;;
44832;SDS011;30569;51.252;9.830;2024-03-23T05:28:21;3.60;;;1.30;;
44832;SDS011;30569;51.252;9.830;2024-03-23T05:30:53;2.45;;;1.30;;
44832;SDS011;30569;51.252;9.830;2024-03-23T05:33:19;2.50;;;1.20;;
44832;SDS011;30569;51.252;9.830;2024-03-23T05:35:45;3.45;;;1.10;;
44832;SDS011;30569;51.252;9.830;2024-03-23T05:38:12;2.78;;;1.30;;
44832;SDS011;30569;51.252;9.830;2024-03-23T05:40:38;2.37;;;1.10;;
44832;SDS011;30569;51.252;9.830;2024-03-23T05:43:05;4.23;;;1.20;;
44832;SDS011;30569;51.252;9.830;2024-03-23T05:45:31;3.58;;;1.17;;
44832;SDS011;30569;51.252;9.830;2024-03-23T05:47:57;2.97;;;1.30;;
44832;SDS011;30569;51.252;9.830;2024-03-23T05:50:23;2.38;;;1.20;;
44832;SDS011;30569;51.252;9.830;2024-03-23T05:52:49;2.13;;;1.10;;
44832;SDS011;30569;51.252;9.830;2024-03-23T05:55:15;3.22;;;1.20;;
44832;SDS011;30569;51.252;9.830;2024-03-23T05:57:41;2.10;;;1.00;;
44832;SDS011;30569;51.252;9.830;2024-03-23T06:00:07;2.22;;;1.10;;
44832;SDS011;30569;51.252;9.830;2024-03-23T06:02:40;3.10;;;1.33;;
44832;SDS011;30569;51.252;9.830;2024-03-23T06:05:10;4.32;;;1.50;;
44832;SDS011;30569;51.252;9.830;2024-03-23T06:07:36;2.87;;;1.30;;
44832;SDS011;30569;51.252;9.830;2024-03-23T06:10:02;5.25;;;1.90;;
44832;SDS011;30569;51.252;9.830;2024-03-23T06:12:28;3.17;;;1.50;;
44832;SDS011;30569;51.252;9.830;2024-03-23T06:14:54;4.15;;;1.65;;
44832;SDS011;30569;51.252;9.830;2024-03-23T06:17:19;4.47;;;1.38;;
44832;SDS011;30569;51.252;9.830;2024-03-23T06:19:45;4.53;;;2.30;;
44832;SDS011;30569;51.252;9.830;2024-03-23T06:22:10;3.10;;;1.40;;
44832;SDS011;30569;51.252;9.830;2024-03-23T06:24:36;5.65;;;2.47;;
44832;SDS011;30569;51.252;9.830;2024-03-23T06:27:01;6.53;;;2.70;;
44832;SDS011;30569;51.252;9.830;2024-03-23T06:29:27;3.33;;;1.67;;
44832;SDS011;30569;51.252;9.830;2024-03-23T06:31:53;2.63;;;1.30;;
44832;SDS011;30569;51.252;9.830;2024-03-23T06:34:20;6.47;;;2.70;;
44832;SDS011;30569;51.252;9.830;2024-03-23T06:36:46;9.03;;;3.40;;
44832;SDS011;30569;51.252;9.830;2024-03-23T06:39:12;7.03;;;2.87;;
44832;SDS011;30569;51.252;9.830;2024-03-23T06:41:40;3.20;;;1.53;;
44832;SDS011;30569;51.252;9.830;2024-03-23T06:44:17;3.40;;;1.50;;
44832;SDS011;30569;51.252;9.830;2024-03-23T06:46:43;16.60;;;5.80;;
44832;SDS011;30569;51.252;9.830;2024-03-23T06:49:09;2.70;;;1.30;;
44832;SDS011;30569;51.252;9.830;2024-03-23T06:51:35;2.83;;;1.40;;
44832;SDS011;30569;51.252;9.830;2024-03-23T06:54:00;4.53;;;1.30;;
44832;SDS011;30569;51.252;9.830;2024-03-23T06:56:28;2.40;;;1.20;;
44832;SDS011;30569;51.252;9.830;2024-03-23T06:58:54;5.53;;;1.30;;
44832;SDS011;30569;51.252;9.830;2024-03-23T07:01:20;4.17;;;1.37;;
44832;SDS011;30569;51.252;9.830;2024-03-23T07:03:46;4.20;;;1.90;;
44832;SDS011;30569;51.252;9.830;2024-03-23T07:06:12;2.20;;;1.20;;
44832;SDS011;30569;51.252;9.830;2024-03-23T07:08:37;4.97;;;1.57;;
44832;SDS011;30569;51.252;9.830;2024-03-23T07:11:03;6.30;;;2.70;;
44832;SDS011;30569;51.252;9.830;2024-03-23T07:13:29;3.10;;;1.60;;
44832;SDS011;30569;51.252;9.830;2024-03-23T07:15:55;6.23;;;2.80;;
44832;SDS011;30569;51.252;9.830;2024-03-23T07:18:22;4.67;;;2.33;;
44832;SDS011;30569;51.252;9.830;2024-03-23T07:20:56;4.30;;;2.20;;
44832;SDS011;30569;51.252;9.830;2024-03-23T07:23:23;2.70;;;1.30;;
44832;SDS011;30569;51.252;9.830;2024-03-23T07:25:59;4.47;;;2.07;;
44832;SDS011;30569;51.252;9.830;2024-03-23T07:28:32;3.58;;;1.65;;
44832;SDS011;30569;51.252;9.830;2024-03-23T07:31:03;3.10;;;1.40;;
44832;SDS011;30569;51.252;9.830;2024-03-23T07:33:30;3.57;;;1.70;;
44832;SDS011;30569;51.252;9.830;2024-03-23T07:35:56;2.80;;;1.30;;
44832;SDS011;30569;51.252;9.830;2024-03-23T07:38:21;2.87;;;1.30;;
44832;SDS011;30569;51.252;9.830;2024-03-23T07:40:47;3.07;;;1.70;;
44832;SDS011;30569;51.252;9.830;2024-03-23T07:43:15;3.00;;;1.60;;
44832;SDS011;30569;51.252;9.830;2024-03-23T07:45:40;2.70;;;1.30;;
44832;SDS011;30569;51.252;9.830;2024-03-23T07:48:06;3.63;;;1.60;;
44832;SDS011;30569;51.252;9.830;2024-03-23T07:50:32;3.50;;;1.50;;
44832;SDS011;30569;51.252;9.830;2024-03-23T07:52:57;3.43;;;1.40;;
44832;SDS011;30569;51.252;9.830;2024-03-23T07:55:23;3.10;;;1.40;;
44832;SDS011;30569;51.252;9.830;2024-03-23T07:57:50;3.27;;;1.50;;
44832;SDS011;30569;51.252;9.830;2024-03-23T08:00:16;3.70;;;1.60;;
44832;SDS011;30569;51.252;9.830;2024-03-23T08:02:42;5.80;;;1.63;;
44832;SDS011;30569;51.252;9.830;2024-03-23T08:05:07;6.23;;;1.70;;
44832;SDS011;30569;51.252;9.830;2024-03-23T08:07:33;5.00;;;1.60;;
44832;SDS011;30569;51.252;9.830;2024-03-23T08:09:58;4.27;;;2.20;;
44832;SDS011;30569;51.252;9.830;2024-03-23T08:12:25;6.30;;;1.60;;
44832;SDS011;30569;51.252;9.830;2024-03-23T08:14:50;5.20;;;1.57;;
44832;SDS011;30569;51.252;9.830;2024-03-23T08:17:16;5.80;;;1.70;;
44832;SDS011;30569;51.252;9.830;2024-03-23T08:19:41;5.83;;;1.80;;
44832;SDS011;30569;51.252;9.830;2024-03-23T08:22:07;7.93;;;2.90;;
44832;SDS011;30569;51.252;9.830;2024-03-23T08:24:34;5.07;;;2.00;;
44832;SDS011;30569;51.252;9.830;2024-03-23T08:26:59;7.03;;;2.33;;
44832;SDS011;30569;51.252;9.830;2024-03-23T08:29:25;6.43;;;2.20;;
44832;SDS011;30569;51.252;9.830;2024-03-23T08:31:51;8.00;;;1.90;;
44832;SDS011;30569;51.252;9.830;2024-03-23T08:34:17;3.97;;;1.92;;
44832;SDS011;30569;51.252;9.830;2024-03-23T08:36:42;4.93;;;1.58;;
44832;SDS011;30569;51.252;9.830;2024-03-23T08:39:08;5.65;;;1.80;;
44832;SDS011;30569;51.252;9.830;2024-03-23T08:41:34;7.43;;;2.00;;
44832;SDS011;30569;51.252;9.830;2024-03-23T08:43:59;6.00;;;2.30;;
44832;SDS011;30569;51.252;9.830;2024-03-23T08:46:25;6.53;;;2.37;;
44832;SDS011;30569;51.252;9.830;2024-03-23T08:48:51;7.33;;;2.70;;
44832;SDS011;30569;51.252;9.830;2024-03-23T08:51:18;9.55;;;3.30;;
44832;SDS011;30569;51.252;9.830;2024-03-23T08:53:43;5.25;;;2.40;;
44832;SDS011;30569;51.252;9.830;2024-03-23T08:56:10;7.10;;;2.70;;
44832;SDS011;30569;51.252;9.830;2024-03-23T08:58:36;8.40;;;3.00;;
44832;SDS011;30569;51.252;9.830;2024-03-23T09:01:07;6.03;;;2.08;;
44832;SDS011;30569;51.252;9.830;2024-03-23T09:03:32;9.27;;;3.43;;
44832;SDS011;30569;51.252;9.830;2024-03-23T09:05:59;8.30;;;3.03;;
44832;SDS011;30569;51.252;9.830;2024-03-23T09:08:25;10.73;;;3.85;;
44832;SDS011;30569;51.252;9.830;2024-03-23T09:10:51;9.90;;;3.78;;
44832;SDS011;30569;51.252;9.830;2024-03-23T09:13:17;19.83;;;7.90;;
44832;SDS011;30569;51.252;9.830;2024-03-23T09:15:47;14.63;;;4.57;;
44832;SDS011;30569;51.252;9.830;2024-03-23T09:18:13;13.55;;;5.10;;
44832;SDS011;30569;51.252;9.830;2024-03-23T09:20:39;12.98;;;4.32;;
44832;SDS011;30569;51.252;9.830;2024-03-23T09:23:05;12.85;;;5.22;;
44832;SDS011;30569;51.252;9.830;2024-03-23T09:25:30;16.57;;;8.07;;
44832;SDS011;30569;51.252;9.830;2024-03-23T09:27:56;16.58;;;7.65;;
44832;SDS011;30569;51.252;9.830;2024-03-23T09:30:23;16.15;;;6.47;;
44832;SDS011;30569;51.252;9.830;2024-03-23T09:32:48;20.50;;;7.88;;
44832;SDS011;30569;51.252;9.830;2024-03-23T09:35:14;16.75;;;6.40;;
44832;SDS011;30569;51.252;9.830;2024-03-23T09:37:40;20.10;;;6.50;;
44832;SDS011;30569;51.252;9.830;2024-03-23T09:40:09;19.38;;;7.30;;
44832;SDS011;30569;51.252;9.830;2024-03-23T09:42:36;16.00;;;6.80;;
44832;SDS011;30569;51.252;9.830;2024-03-23T09:45:02;14.73;;;7.45;;
44832;SDS011;30569;51.252;9.830;2024-03-23T09:47:30;18.85;;;8.10;;
44832;SDS011;30569;51.252;9.830;2024-03-23T09:49:57;13.90;;;5.22;;
44832;SDS011;30569;51.252;9.830;2024-03-23T09:52:23;12.00;;;5.43;;
44832;SDS011;30569;51.252;9.830;2024-03-23T09:54:48;14.35;;;5.18;;
44832;SDS011;30569;51.252;9.830;2024-03-23T09:57:14;11.13;;;4.93;;
44832;SDS011;30569;51.252;9.830;2024-03-23T09:59:39;8.93;;;4.63;;
44832;SDS011;30569;51.252;9.830;2024-03-23T10:02:05;11.48;;;4.75;;
44832;SDS011;30569;51.252;9.830;2024-03-23T10:04:38;12.80;;;4.88;;
44832;SDS011;30569;51.252;9.830;2024-03-23T10:07:11;12.43;;;3.97;;
44832;SDS011;30569;51.252;9.830;2024-03-23T10:09:40;11.10;;;4.20;;
44832;SDS011;30569;51.252;9.830;2024-03-23T10:12:09;11.77;;;4.75;;
44832;SDS011;30569;51.252;9.830;2024-03-23T10:14:35;9.00;;;3.83;;
44832;SDS011;30569;51.252;9.830;2024-03-23T10:17:20;8.93;;;4.07;;
44832;SDS011;30569;51.252;9.830;2024-03-23T10:19:50;6.90;;;3.78;;
44832;SDS011;30569;51.252;9.830;2024-03-23T10:22:21;8.20;;;3.10;;
44832;SDS011;30569;51.252;9.830;2024-03-23T10:24:48;8.75;;;2.78;;
44832;SDS011;30569;51.252;9.830;2024-03-23T10:27:18;7.07;;;2.65;;
44832;SDS011;30569;51.252;9.830;2024-03-23T10:29:45;6.05;;;2.15;;
44832;SDS011;30569;51.252;9.830;2024-03-23T10:32:11;5.10;;;2.70;;
44832;SDS011;30569;51.252;9.830;2024-03-23T10:34:38;7.15;;;3.53;;
44832;SDS011;30569;51.252;9.830;2024-03-23T10:37:04;6.85;;;3.83;;
44832;SDS011;30569;51.252;9.830;2024-03-23T10:39:34;6.63;;;3.47;;
44832;SDS011;30569;51.252;9.830;2024-03-23T10:42:02;9.40;;;3.92;;
44832;SDS011;30569;51.252;9.830;2024-03-23T10:44:29;7.53;;;3.60;;
44832;SDS011;30569;51.252;9.830;2024-03-23T10:46:56;7.30;;;3.53;;
44832;SDS011;30569;51.252;9.830;2024-03-23T10:49:26;7.43;;;3.50;;
44832;SDS011;30569;51.252;9.830;2024-03-23T10:51:54;11.80;;;4.18;;
44832;SDS011;30569;51.252;9.830;2024-03-23T10:54:21;8.55;;;4.05;;
44832;SDS011;30569;51.252;9.830;2024-03-23T10:56:49;8.60;;;4.05;;
44832;SDS011;30569;51.252;9.830;2024-03-23T10:59:31;6.30;;;3.00;;
44832;SDS011;30569;51.252;9.830;2024-03-23T11:01:58;8.52;;;3.22;;
44832;SDS011;30569;51.252;9.830;2024-03-23T11:04:31;7.10;;;3.95;;
44832;SDS011;30569;51.252;9.830;2024-03-23T11:06:57;9.25;;;3.45;;
44832;SDS011;30569;51.252;9.830;2024-03-23T11:17:18;12.95;;;4.15;;
44832;SDS011;30569;51.252;9.830;2024-03-23T11:19:44;10.00;;;4.00;;
44832;SDS011;30569;51.252;9.830;2024-03-23T11:25:14;6.97;;;3.35;;
44832;SDS011;30569;51.252;9.830;2024-03-23T11:27:46;9.40;;;3.60;;
44832;SDS011;30569;51.252;9.830;2024-03-23T11:30:13;10.70;;;3.42;;
44832;SDS011;30569;51.252;9.830;2024-03-23T11:32:40;10.15;;;3.05;;
44832;SDS011;30569;51.252;9.830;2024-03-23T11:35:07;11.30;;;3.97;;
44832;SDS011;30569;51.252;9.830;2024-03-23T11:37:35;11.45;;;3.67;;
44832;SDS011;30569;51.252;9.830;2024-03-23T11:40:14;8.43;;;3.65;;
44832;SDS011;30569;51.252;9.830;2024-03-23T11:42:42;7.00;;;3.10;;
44832;SDS011;30569;51.252;9.830;2024-03-23T11:45:08;8.82;;;3.30;;
44832;SDS011;30569;51.252;9.830;2024-03-23T11:47:34;9.20;;;3.10;;
44832;SDS011;30569;51.252;9.830;2024-03-23T11:50:00;10.10;;;2.80;;
44832;SDS011;30569;51.252;9.830;2024-03-23T11:52:26;6.15;;;2.92;;
44832;SDS011;30569;51.252;9.830;2024-03-23T11:54:51;8.35;;;2.53;;
44832;SDS011;30569;51.252;9.830;2024-03-23T11:57:27;9.65;;;2.83;;
44832;SDS011;30569;51.252;9.830;2024-03-23T11:59:53;7.45;;;2.67;;
44832;SDS011;30569;51.252;9.830;2024-03-23T12:02:19;7.38;;;2.85;;
44832;SDS011;30569;51.252;9.830;2024-03-23T12:04:45;7.72;;;2.80;;
44832;SDS011;30569;51.252;9.830;2024-03-23T12:07:11;4.78;;;2.10;;
44832;SDS011;30569;51.252;9.830;2024-03-23T12:09:43;6.38;;;2.03;;
44832;SDS011;30569;51.252;9.830;2024-03-23T12:12:14;5.75;;;1.85;;
44832;SDS011;30569;51.252;9.830;2024-03-23T12:15:02;7.32;;;2.35;;
44832;SDS011;30569;51.252;9.830;2024-03-23T12:17:31;7.10;;;2.38;;
44832;SDS011;30569;51.252;9.830;2024-03-23T12:19:57;5.35;;;2.15;;
44832;SDS011;30569;51.252;9.830;2024-03-23T12:22:23;7.05;;;2.15;;
44832;SDS011;30569;51.252;9.830;2024-03-23T12:24:49;11.30;;;3.15;;
44832;SDS011;30569;51.252;9.830;2024-03-23T12:27:15;11.25;;;2.20;;
44832;SDS011;30569;51.252;9.830;2024-03-23T12:29:41;5.82;;;1.90;;
44832;SDS011;30569;51.252;9.830;2024-03-23T12:32:12;6.15;;;2.13;;
44832;SDS011;30569;51.252;9.830;2024-03-23T12:34:38;4.63;;;1.70;;
44832;SDS011;30569;51.252;9.830;2024-03-23T12:37:04;6.70;;;1.85;;
44832;SDS011;30569;51.252;9.830;2024-03-23T12:39:31;5.95;;;1.77;;
44832;SDS011;30569;51.252;9.830;2024-03-23T12:41:57;8.10;;;2.35;;
44832;SDS011;30569;51.252;9.830;2024-03-23T12:44:22;3.25;;;1.50;;
44832;SDS011;30569;51.252;9.830;2024-03-23T12:46:48;4.20;;;1.60;;
44832;SDS011;30569;51.252;9.830;2024-03-23T12:49:13;4.97;;;2.20;;
44832;SDS011;30569;51.252;9.830;2024-03-23T12:51:39;3.97;;;1.80;;
44832;SDS011;30569;51.252;9.830;2024-03-23T12:54:17;5.07;;;1.75;;
44832;SDS011;30569;51.252;9.830;2024-03-23T12:56:43;4.20;;;1.70;;
44832;SDS011;30569;51.252;9.830;2024-03-23T12:59:09;4.30;;;1.92;;
44832;SDS011;30569;51.252;9.830;2024-03-23T13:01:34;3.92;;;1.60;;
44832;SDS011;30569;51.252;9.830;2024-03-23T13:04:00;5.63;;;1.90;;
44832;SDS011;30569;51.252;9.830;2024-03-23T13:06:27;4.90;;;1.75;;
44832;SDS011;30569;51.252;9.830;2024-03-23T13:08:57;4.38;;;1.67;;
44832;SDS011;30569;51.252;9.830;2024-03-23T13:11:22;3.97;;;1.60;;
44832;SDS011;30569;51.252;9.830;2024-03-23T13:13:48;3.17;;;1.45;;
44832;SDS011;30569;51.252;9.830;2024-03-23T13:16:14;3.30;;;1.40;;
44832;SDS011;30569;51.252;9.830;2024-03-23T13:18:39;5.38;;;1.80;;
44832;SDS011;30569;51.252;9.830;2024-03-23T13:21:05;6.22;;;2.10;;
44832;SDS011;30569;51.252;9.830;2024-03-23T13:23:31;8.18;;;1.98;;
44832;SDS011;30569;51.252;9.830;2024-03-23T13:25:57;8.10;;;1.98;;
44832;SDS011;30569;51.252;9.830;2024-03-23T13:28:23;3.13;;;1.70;;
44832;SDS011;30569;51.252;9.830;2024-03-23T13:30:55;5.00;;;1.60;;
44832;SDS011;30569;51.252;9.830;2024-03-23T13:35:51;5.97;;;2.08;;
44832;SDS011;30569;51.252;9.830;2024-03-23T13:38:18;5.53;;;1.92;;
44832;SDS011;30569;51.252;9.830;2024-03-23T13:40:56;4.60;;;1.88;;
44832;SDS011;30569;51.252;9.830;2024-03-23T13:43:26;5.28;;;2.13;;
44832;SDS011;30569;51.252;9.830;2024-03-23T13:45:53;4.65;;;2.53;;
44832;SDS011;30569;51.252;9.830;2024-03-23T13:48:21;6.22;;;1.88;;
44832;SDS011;30569;51.252;9.830;2024-03-23T13:50:47;4.95;;;1.80;;
44832;SDS011;30569;51.252;9.830;2024-03-23T13:53:21;6.18;;;1.92;;
44832;SDS011;30569;51.252;9.830;2024-03-23T13:55:48;6.03;;;1.80;;
44832;SDS011;30569;51.252;9.830;2024-03-23T13:58:14;6.32;;;1.92;;
44832;SDS011;30569;51.252;9.830;2024-03-23T14:00:40;6.43;;;2.17;;
44832;SDS011;30569;51.252;9.830;2024-03-23T14:03:12;4.75;;;2.05;;
44832;SDS011;30569;51.252;9.830;2024-03-23T14:05:39;3.53;;;1.70;;
44832;SDS011;30569;51.252;9.830;2024-03-23T14:08:08;6.07;;;1.92;;
44832;SDS011;30569;51.252;9.830;2024-03-23T14:10:34;4.30;;;1.80;;
44832;SDS011;30569;51.252;9.830;2024-03-23T14:13:03;4.30;;;1.92;;
44832;SDS011;30569;51.252;9.830;2024-03-23T14:15:29;6.95;;;2.03;;
44832;SDS011;30569;51.252;9.830;2024-03-23T14:17:56;7.78;;;2.30;;
44832;SDS011;30569;51.252;9.830;2024-03-23T14:20:22;5.63;;;2.50;;
44832;SDS011;30569;51.252;9.830;2024-03-23T14:22:48;4.30;;;2.00;;
44832;SDS011;30569;51.252;9.830;2024-03-23T14:25:14;4.00;;;1.92;;
44832;SDS011;30569;51.252;9.830;2024-03-23T14:27:40;6.07;;;2.88;;
44832;SDS011;30569;51.252;9.830;2024-03-23T14:30:06;7.63;;;2.92;;
44832;SDS011;30569;51.252;9.830;2024-03-23T14:32:32;7.30;;;2.60;;
44832;SDS011;30569;51.252;9.830;2024-03-23T14:35:02;5.10;;;1.83;;
44832;SDS011;30569;51.252;9.830;2024-03-23T14:37:30;3.83;;;1.80;;
44832;SDS011;30569;51.252;9.830;2024-03-23T14:39:56;4.90;;;2.10;;
44832;SDS011;30569;51.252;9.830;2024-03-23T14:42:21;6.45;;;2.70;;
44832;SDS011;30569;51.252;9.830;2024-03-23T14:44:48;7.25;;;2.20;;
44832;SDS011;30569;51.252;9.830;2024-03-23T14:47:14;5.50;;;2.00;;
44832;SDS011;30569;51.252;9.830;2024-03-23T14:49:40;7.05;;;1.98;;
44832;SDS011;30569;51.252;9.830;2024-03-23T14:52:06;4.05;;;1.70;;
44832;SDS011;30569;51.252;9.830;2024-03-23T14:54:33;6.90;;;2.20;;
44832;SDS011;30569;51.252;9.830;2024-03-23T14:57:00;7.85;;;2.40;;
44832;SDS011;30569;51.252;9.830;2024-03-23T14:59:25;3.33;;;1.60;;
44832;SDS011;30569;51.252;9.830;2024-03-23T15:01:51;3.60;;;1.75;;
44832;SDS011;30569;51.252;9.830;2024-03-23T15:04:16;4.78;;;1.80;;
44832;SDS011;30569;51.252;9.830;2024-03-23T15:06:42;4.18;;;1.88;;
44832;SDS011;30569;51.252;9.830;2024-03-23T15:09:11;5.25;;;2.20;;
44832;SDS011;30569;51.252;9.830;2024-03-23T15:11:37;4.93;;;2.22;;
44832;SDS011;30569;51.252;9.830;2024-03-23T15:14:02;5.30;;;1.80;;
44832;SDS011;30569;51.252;9.830;2024-03-23T15:16:28;4.40;;;1.80;;
44832;SDS011;30569;51.252;9.830;2024-03-23T15:18:53;4.35;;;1.80;;
44832;SDS011;30569;51.252;9.830;2024-03-23T15:21:19;3.80;;;2.10;;
44832;SDS011;30569;51.252;9.830;2024-03-23T15:23:45;6.60;;;2.25;;
44832;SDS011;30569;51.252;9.830;2024-03-23T15:26:11;4.43;;;1.58;;
44832;SDS011;30569;51.252;9.830;2024-03-23T15:28:37;6.55;;;1.80;;
44832;SDS011;30569;51.252;9.830;2024-03-23T15:31:08;4.85;;;1.70;;
44832;SDS011;30569;51.252;9.830;2024-03-23T15:33:34;5.78;;;1.80;;
44832;SDS011;30569;51.252;9.830;2024-03-23T15:36:00;4.68;;;2.25;;
44832;SDS011;30569;51.252;9.830;2024-03-23T15:38:26;4.55;;;1.90;;
44832;SDS011;30569;51.252;9.830;2024-03-23T15:40:54;6.95;;;2.38;;
44832;SDS011;30569;51.252;9.830;2024-03-23T15:43:20;5.82;;;2.33;;
44832;SDS011;30569;51.252;9.830;2024-03-23T15:48:21;4.95;;;1.50;;
44832;SDS011;30569;51.252;9.830;2024-03-23T15:50:53;4.35;;;2.33;;
44832;SDS011;30569;51.252;9.830;2024-03-23T15:53:23;4.80;;;1.63;;